Verhalen, Texas
Current Conditions -  °F | °C
As of 7:55 PM on Wednesday 22 Oct 2014 (Local Time) from KPEQ Reporting Station
Clear Clear  
Wind Chill: 69°   Ceiling: Unl
Heat Index: 69°   Visibility: 10mi
Dew Point: 61°   Wind: 8mph
Humidity: 76%   Direction: 90°E
Pressure: 30.06"   Gusts: NA
Location:  31.4465°N, 103.713°W
Report Text: KPEQ 230055Z AUTO 09007KT 10SM CLR 20/16 A3006 RMK AO2 LTG DSNT SW T02030160
Loading
Personal Weather Stations






























Interactive Weather Map
Tropical Storm Tracking
New forecast layout! Learn more

10-Day Weather Forecast

Advertisements
Track Severe Weather on mobile